sensor_id;sensor_type;location;lat;lon;timestamp;temperature;humidity
14401;DHT22;7285;50.894;5.462;2022-11-14T00:01:09;3.00;99.90
14401;DHT22;7285;50.894;5.462;2022-11-14T00:03:37;3.00;99.90
14401;DHT22;7285;50.894;5.462;2022-11-14T00:06:05;2.90;99.90
14401;DHT22;7285;50.894;5.462;2022-11-14T00:08:32;3.00;99.90
14401;DHT22;7285;50.894;5.462;2022-11-14T00:11:01;2.90;99.90
14401;DHT22;7285;50.894;5.462;2022-11-14T00:13:28;2.90;99.90
14401;DHT22;7285;50.894;5.462;2022-11-14T00:15:55;2.90;99.90
14401;DHT22;7285;50.894;5.462;2022-11-14T00:18:22;2.90;99.90
14401;DHT22;7285;50.894;5.462;2022-11-14T00:20:51;2.80;99.90
14401;DHT22;7285;50.894;5.462;2022-11-14T00:23:19;2.80;99.90
14401;DHT22;7285;50.894;5.462;2022-11-14T00:25:46;2.70;99.90
14401;DHT22;7285;50.894;5.462;2022-11-14T00:28:14;2.70;99.90
14401;DHT22;7285;50.894;5.462;2022-11-14T00:30:44;2.70;99.90
14401;DHT22;7285;50.894;5.462;2022-11-14T00:33:11;2.70;99.90
14401;DHT22;7285;50.894;5.462;2022-11-14T00:35:38;2.60;99.90
14401;DHT22;7285;50.894;5.462;2022-11-14T00:38:05;2.50;99.90
14401;DHT22;7285;50.894;5.462;2022-11-14T00:40:32;2.40;99.90
14401;DHT22;7285;50.894;5.462;2022-11-14T00:42:59;2.30;99.90
14401;DHT22;7285;50.894;5.462;2022-11-14T00:45:27;2.30;99.90
14401;DHT22;7285;50.894;5.462;2022-11-14T00:47:54;2.30;99.90
14401;DHT22;7285;50.894;5.462;2022-11-14T00:50:20;2.20;99.90
14401;DHT22;7285;50.894;5.462;2022-11-14T00:52:47;2.20;99.90
14401;DHT22;7285;50.894;5.462;2022-11-14T00:55:14;2.20;99.90
14401;DHT22;7285;50.894;5.462;2022-11-14T00:57:41;2.20;99.90
14401;DHT22;7285;50.894;5.462;2022-11-14T01:00:10;2.30;99.90
14401;DHT22;7285;50.894;5.462;2022-11-14T01:02:39;2.20;99.90
14401;DHT22;7285;50.894;5.462;2022-11-14T01:05:06;2.20;99.90
14401;DHT22;7285;50.894;5.462;2022-11-14T01:07:33;2.20;99.90
14401;DHT22;7285;50.894;5.462;2022-11-14T01:10:00;2.20;99.90
14401;DHT22;7285;50.894;5.462;2022-11-14T01:12:27;2.20;99.90
14401;DHT22;7285;50.894;5.462;2022-11-14T01:14:53;2.20;99.90
14401;DHT22;7285;50.894;5.462;2022-11-14T01:17:20;2.20;99.90
14401;DHT22;7285;50.894;5.462;2022-11-14T01:19:48;2.10;99.90
14401;DHT22;7285;50.894;5.462;2022-11-14T01:22:15;2.10;99.90
14401;DHT22;7285;50.894;5.462;2022-11-14T01:24:42;2.00;99.90
14401;DHT22;7285;50.894;5.462;2022-11-14T01:27:09;2.00;99.90
14401;DHT22;7285;50.894;5.462;2022-11-14T01:29:36;2.00;99.90
14401;DHT22;7285;50.894;5.462;2022-11-14T01:32:03;1.90;99.90
14401;DHT22;7285;50.894;5.462;2022-11-14T01:34:31;1.90;99.90
14401;DHT22;7285;50.894;5.462;2022-11-14T01:36:59;1.90;99.90
14401;DHT22;7285;50.894;5.462;2022-11-14T01:39:26;1.90;99.90
14401;DHT22;7285;50.894;5.462;2022-11-14T01:41:52;1.90;99.90
14401;DHT22;7285;50.894;5.462;2022-11-14T01:44:40;1.90;99.90
14401;DHT22;7285;50.894;5.462;2022-11-14T01:47:09;1.80;99.90
14401;DHT22;7285;50.894;5.462;2022-11-14T01:49:38;1.80;99.90
14401;DHT22;7285;50.894;5.462;2022-11-14T01:52:10;1.80;99.90
14401;DHT22;7285;50.894;5.462;2022-11-14T01:54:41;1.80;99.90
14401;DHT22;7285;50.894;5.462;2022-11-14T01:57:09;1.80;99.90
14401;DHT22;7285;50.894;5.462;2022-11-14T01:59:40;1.80;99.90
14401;DHT22;7285;50.894;5.462;2022-11-14T02:02:11;1.80;99.90
14401;DHT22;7285;50.894;5.462;2022-11-14T02:04:42;1.70;99.90
14401;DHT22;7285;50.894;5.462;2022-11-14T02:07:12;1.70;99.90
14401;DHT22;7285;50.894;5.462;2022-11-14T02:09:44;1.70;99.90
14401;DHT22;7285;50.894;5.462;2022-11-14T02:12:13;1.70;99.90
14401;DHT22;7285;50.894;5.462;2022-11-14T02:14:41;1.60;99.90
14401;DHT22;7285;50.894;5.462;2022-11-14T02:17:09;1.60;99.90
14401;DHT22;7285;50.894;5.462;2022-11-14T02:19:41;1.60;99.90
14401;DHT22;7285;50.894;5.462;2022-11-14T02:22:10;1.60;99.90
14401;DHT22;7285;50.894;5.462;2022-11-14T02:24:36;1.50;99.90
14401;DHT22;7285;50.894;5.462;2022-11-14T02:27:04;1.50;99.90
14401;DHT22;7285;50.894;5.462;2022-11-14T02:29:33;1.50;99.90
14401;DHT22;7285;50.894;5.462;2022-11-14T02:32:00;1.50;99.90
14401;DHT22;7285;50.894;5.462;2022-11-14T02:34:27;1.50;99.90
14401;DHT22;7285;50.894;5.462;2022-11-14T02:36:54;1.50;99.90
14401;DHT22;7285;50.894;5.462;2022-11-14T02:39:23;1.40;99.90
14401;DHT22;7285;50.894;5.462;2022-11-14T02:41:50;1.40;99.90
14401;DHT22;7285;50.894;5.462;2022-11-14T02:44:18;1.40;99.90
14401;DHT22;7285;50.894;5.462;2022-11-14T02:46:44;1.40;99.90
14401;DHT22;7285;50.894;5.462;2022-11-14T02:49:13;1.40;99.90
14401;DHT22;7285;50.894;5.462;2022-11-14T02:51:40;1.40;99.90
14401;DHT22;7285;50.894;5.462;2022-11-14T02:54:07;1.30;99.90
14401;DHT22;7285;50.894;5.462;2022-11-14T02:56:35;1.20;99.90
14401;DHT22;7285;50.894;5.462;2022-11-14T02:59:03;1.20;99.90
14401;DHT22;7285;50.894;5.462;2022-11-14T03:01:30;1.10;99.90
14401;DHT22;7285;50.894;5.462;2022-11-14T03:03:57;1.20;99.90
14401;DHT22;7285;50.894;5.462;2022-11-14T03:06:23;1.20;99.90
14401;DHT22;7285;50.894;5.462;2022-11-14T03:08:50;1.20;99.90
14401;DHT22;7285;50.894;5.462;2022-11-14T03:11:17;1.10;99.90
14401;DHT22;7285;50.894;5.462;2022-11-14T03:13:45;1.10;99.90
14401;DHT22;7285;50.894;5.462;2022-11-14T03:16:12;1.10;99.90
14401;DHT22;7285;50.894;5.462;2022-11-14T03:18:40;1.10;99.90
14401;DHT22;7285;50.894;5.462;2022-11-14T03:21:08;1.10;99.90
14401;DHT22;7285;50.894;5.462;2022-11-14T03:23:35;0.90;99.90
14401;DHT22;7285;50.894;5.462;2022-11-14T03:26:04;0.90;99.90
14401;DHT22;7285;50.894;5.462;2022-11-14T03:28:31;1.00;99.90
14401;DHT22;7285;50.894;5.462;2022-11-14T03:30:59;1.00;99.90
14401;DHT22;7285;50.894;5.462;2022-11-14T03:33:26;0.90;99.90
14401;DHT22;7285;50.894;5.462;2022-11-14T03:35:53;0.90;99.90
14401;DHT22;7285;50.894;5.462;2022-11-14T03:38:20;0.90;99.90
14401;DHT22;7285;50.894;5.462;2022-11-14T03:40:48;0.90;99.90
14401;DHT22;7285;50.894;5.462;2022-11-14T03:43:15;0.90;99.90
14401;DHT22;7285;50.894;5.462;2022-11-14T03:45:42;0.90;99.90
14401;DHT22;7285;50.894;5.462;2022-11-14T03:48:11;0.90;99.90
14401;DHT22;7285;50.894;5.462;2022-11-14T03:50:38;0.70;99.90
14401;DHT22;7285;50.894;5.462;2022-11-14T03:53:05;0.80;99.90
14401;DHT22;7285;50.894;5.462;2022-11-14T03:55:32;0.70;99.90
14401;DHT22;7285;50.894;5.462;2022-11-14T03:57:59;0.70;99.90
14401;DHT22;7285;50.894;5.462;2022-11-14T04:00:26;0.60;99.90
14401;DHT22;7285;50.894;5.462;2022-11-14T04:02:53;0.70;99.90
14401;DHT22;7285;50.894;5.462;2022-11-14T04:05:21;0.70;99.90
14401;DHT22;7285;50.894;5.462;2022-11-14T04:07:49;0.80;99.90
14401;DHT22;7285;50.894;5.462;2022-11-14T04:10:16;0.80;99.90
14401;DHT22;7285;50.894;5.462;2022-11-14T04:12:46;0.70;99.90
14401;DHT22;7285;50.894;5.462;2022-11-14T04:15:13;0.70;99.90
14401;DHT22;7285;50.894;5.462;2022-11-14T04:17:40;0.60;99.90
14401;DHT22;7285;50.894;5.462;2022-11-14T04:20:08;0.60;99.90
14401;DHT22;7285;50.894;5.462;2022-11-14T04:22:36;0.50;99.90
14401;DHT22;7285;50.894;5.462;2022-11-14T04:25:04;0.60;99.90
14401;DHT22;7285;50.894;5.462;2022-11-14T04:27:31;0.60;99.90
14401;DHT22;7285;50.894;5.462;2022-11-14T04:29:58;0.60;99.90
14401;DHT22;7285;50.894;5.462;2022-11-14T04:32:24;0.70;99.90
14401;DHT22;7285;50.894;5.462;2022-11-14T04:34:51;0.70;99.90
14401;DHT22;7285;50.894;5.462;2022-11-14T04:37:18;0.80;99.90
14401;DHT22;7285;50.894;5.462;2022-11-14T04:39:46;0.70;99.90
14401;DHT22;7285;50.894;5.462;2022-11-14T04:42:13;0.70;99.90
14401;DHT22;7285;50.894;5.462;2022-11-14T04:44:40;0.80;99.90
14401;DHT22;7285;50.894;5.462;2022-11-14T04:47:07;0.60;99.90
14401;DHT22;7285;50.894;5.462;2022-11-14T04:49:34;0.60;99.90
14401;DHT22;7285;50.894;5.462;2022-11-14T04:52:01;0.60;99.90
14401;DHT22;7285;50.894;5.462;2022-11-14T04:54:28;0.60;99.90
14401;DHT22;7285;50.894;5.462;2022-11-14T04:56:56;0.50;99.90
14401;DHT22;7285;50.894;5.462;2022-11-14T04:59:23;0.50;99.90
14401;DHT22;7285;50.894;5.462;2022-11-14T05:01:50;0.50;99.90
14401;DHT22;7285;50.894;5.462;2022-11-14T05:04:17;0.60;99.90
14401;DHT22;7285;50.894;5.462;2022-11-14T05:06:44;0.60;99.90
14401;DHT22;7285;50.894;5.462;2022-11-14T05:09:11;0.60;99.90
14401;DHT22;7285;50.894;5.462;2022-11-14T05:11:37;0.60;99.90
14401;DHT22;7285;50.894;5.462;2022-11-14T05:14:06;0.60;99.90
14401;DHT22;7285;50.894;5.462;2022-11-14T05:16:32;0.60;99.90
14401;DHT22;7285;50.894;5.462;2022-11-14T05:18:59;0.50;99.90
14401;DHT22;7285;50.894;5.462;2022-11-14T05:21:26;0.50;99.90
14401;DHT22;7285;50.894;5.462;2022-11-14T05:23:53;0.50;99.90
14401;DHT22;7285;50.894;5.462;2022-11-14T05:26:20;0.50;99.90
14401;DHT22;7285;50.894;5.462;2022-11-14T05:28:47;0.50;99.90
14401;DHT22;7285;50.894;5.462;2022-11-14T05:31:15;0.50;99.90
14401;DHT22;7285;50.894;5.462;2022-11-14T05:33:43;0.50;99.90
14401;DHT22;7285;50.894;5.462;2022-11-14T05:36:13;0.50;99.90
14401;DHT22;7285;50.894;5.462;2022-11-14T05:38:41;0.50;99.90
14401;DHT22;7285;50.894;5.462;2022-11-14T05:41:10;0.50;99.90
14401;DHT22;7285;50.894;5.462;2022-11-14T05:43:37;0.50;99.90
14401;DHT22;7285;50.894;5.462;2022-11-14T05:46:06;0.50;99.90
14401;DHT22;7285;50.894;5.462;2022-11-14T05:48:34;0.50;99.90
14401;DHT22;7285;50.894;5.462;2022-11-14T05:51:02;0.50;99.90
14401;DHT22;7285;50.894;5.462;2022-11-14T05:53:30;0.50;99.90
14401;DHT22;7285;50.894;5.462;2022-11-14T05:55:59;0.40;99.90
14401;DHT22;7285;50.894;5.462;2022-11-14T05:58:27;0.40;99.90
14401;DHT22;7285;50.894;5.462;2022-11-14T06:01:01;0.50;99.90
14401;DHT22;7285;50.894;5.462;2022-11-14T06:03:30;0.40;99.90
14401;DHT22;7285;50.894;5.462;2022-11-14T06:06:00;0.50;99.90
14401;DHT22;7285;50.894;5.462;2022-11-14T06:08:27;0.50;99.90
14401;DHT22;7285;50.894;5.462;2022-11-14T06:10:55;0.60;99.90
14401;DHT22;7285;50.894;5.462;2022-11-14T06:13:22;0.60;99.90
14401;DHT22;7285;50.894;5.462;2022-11-14T06:15:49;0.50;99.90
14401;DHT22;7285;50.894;5.462;2022-11-14T06:18:16;0.60;99.90
14401;DHT22;7285;50.894;5.462;2022-11-14T06:20:43;0.50;99.90
14401;DHT22;7285;50.894;5.462;2022-11-14T06:23:11;0.60;99.90
14401;DHT22;7285;50.894;5.462;2022-11-14T06:25:38;0.50;99.90
14401;DHT22;7285;50.894;5.462;2022-11-14T06:28:05;0.50;99.90
14401;DHT22;7285;50.894;5.462;2022-11-14T06:30:32;0.50;99.90
14401;DHT22;7285;50.894;5.462;2022-11-14T06:32:59;0.50;99.90
14401;DHT22;7285;50.894;5.462;2022-11-14T06:35:26;0.50;99.90
14401;DHT22;7285;50.894;5.462;2022-11-14T06:37:53;0.50;99.90
14401;DHT22;7285;50.894;5.462;2022-11-14T06:40:21;0.50;99.90
14401;DHT22;7285;50.894;5.462;2022-11-14T06:42:49;0.40;99.90
14401;DHT22;7285;50.894;5.462;2022-11-14T06:45:16;0.40;99.90
14401;DHT22;7285;50.894;5.462;2022-11-14T06:47:43;0.40;99.90
14401;DHT22;7285;50.894;5.462;2022-11-14T06:50:10;0.40;99.90
14401;DHT22;7285;50.894;5.462;2022-11-14T06:52:37;0.40;99.90
14401;DHT22;7285;50.894;5.462;2022-11-14T06:55:04;0.40;99.90
14401;DHT22;7285;50.894;5.462;2022-11-14T06:57:33;0.40;99.90
14401;DHT22;7285;50.894;5.462;2022-11-14T06:59:59;0.30;99.90
14401;DHT22;7285;50.894;5.462;2022-11-14T07:02:27;0.30;99.90
14401;DHT22;7285;50.894;5.462;2022-11-14T07:04:53;0.30;99.90
14401;DHT22;7285;50.894;5.462;2022-11-14T07:07:20;0.20;99.90
14401;DHT22;7285;50.894;5.462;2022-11-14T07:09:47;0.20;99.90
14401;DHT22;7285;50.894;5.462;2022-11-14T07:12:14;0.30;99.90
14401;DHT22;7285;50.894;5.462;2022-11-14T07:14:42;0.30;99.90
14401;DHT22;7285;50.894;5.462;2022-11-14T07:17:09;0.40;99.90
14401;DHT22;7285;50.894;5.462;2022-11-14T07:19:36;0.40;99.90
14401;DHT22;7285;50.894;5.462;2022-11-14T07:22:03;0.40;99.90
14401;DHT22;7285;50.894;5.462;2022-11-14T07:24:29;0.50;99.90
14401;DHT22;7285;50.894;5.462;2022-11-14T07:26:56;0.50;99.90
14401;DHT22;7285;50.894;5.462;2022-11-14T07:29:23;0.60;99.90
14401;DHT22;7285;50.894;5.462;2022-11-14T07:31:51;0.60;99.90
14401;DHT22;7285;50.894;5.462;2022-11-14T07:34:18;0.60;99.90
14401;DHT22;7285;50.894;5.462;2022-11-14T07:36:45;0.50;99.90
14401;DHT22;7285;50.894;5.462;2022-11-14T07:39:12;0.60;99.90
14401;DHT22;7285;50.894;5.462;2022-11-14T07:41:39;0.60;99.90
14401;DHT22;7285;50.894;5.462;2022-11-14T07:44:06;0.70;99.90
14401;DHT22;7285;50.894;5.462;2022-11-14T07:46:33;0.80;99.90
14401;DHT22;7285;50.894;5.462;2022-11-14T07:49:01;0.90;99.90
14401;DHT22;7285;50.894;5.462;2022-11-14T07:51:28;0.90;99.90
14401;DHT22;7285;50.894;5.462;2022-11-14T07:53:55;0.90;99.90
14401;DHT22;7285;50.894;5.462;2022-11-14T07:56:22;1.00;99.90
14401;DHT22;7285;50.894;5.462;2022-11-14T07:58:50;1.10;99.90
14401;DHT22;7285;50.894;5.462;2022-11-14T08:01:17;1.10;99.90
14401;DHT22;7285;50.894;5.462;2022-11-14T08:03:44;1.20;99.90
14401;DHT22;7285;50.894;5.462;2022-11-14T08:06:13;1.30;16.60
14401;DHT22;7285;50.894;5.462;2022-11-14T08:08:40;1.30;1.00
14401;DHT22;7285;50.894;5.462;2022-11-14T08:11:07;1.40;99.90
14401;DHT22;7285;50.894;5.462;2022-11-14T08:13:35;1.50;99.90
14401;DHT22;7285;50.894;5.462;2022-11-14T08:16:05;1.70;1.00
14401;DHT22;7285;50.894;5.462;2022-11-14T08:18:32;1.80;1.00
14401;DHT22;7285;50.894;5.462;2022-11-14T08:21:03;1.90;1.00
14401;DHT22;7285;50.894;5.462;2022-11-14T08:23:31;2.00;1.00
14401;DHT22;7285;50.894;5.462;2022-11-14T08:25:58;2.20;4.40
14401;DHT22;7285;50.894;5.462;2022-11-14T08:28:25;2.30;19.10
14401;DHT22;7285;50.894;5.462;2022-11-14T08:30:52;2.40;1.00
14401;DHT22;7285;50.894;5.462;2022-11-14T08:33:23;2.50;73.20
14401;DHT22;7285;50.894;5.462;2022-11-14T08:35:50;2.70;99.90
14401;DHT22;7285;50.894;5.462;2022-11-14T08:38:17;2.80;1.00
14401;DHT22;7285;50.894;5.462;2022-11-14T08:40:45;3.00;99.90
14401;DHT22;7285;50.894;5.462;2022-11-14T08:43:12;3.10;99.90
14401;DHT22;7285;50.894;5.462;2022-11-14T08:45:39;3.30;1.00
14401;DHT22;7285;50.894;5.462;2022-11-14T08:48:06;3.50;1.00
14401;DHT22;7285;50.894;5.462;2022-11-14T08:50:33;3.60;99.90
14401;DHT22;7285;50.894;5.462;2022-11-14T08:53:00;3.80;1.00
14401;DHT22;7285;50.894;5.462;2022-11-14T08:55:27;3.90;99.90
14401;DHT22;7285;50.894;5.462;2022-11-14T08:57:55;4.10;99.90
14401;DHT22;7285;50.894;5.462;2022-11-14T09:00:22;4.20;9.80
14401;DHT22;7285;50.894;5.462;2022-11-14T09:02:49;4.30;1.00
14401;DHT22;7285;50.894;5.462;2022-11-14T09:05:16;4.40;99.90
14401;DHT22;7285;50.894;5.462;2022-11-14T09:07:43;4.50;14.90
14401;DHT22;7285;50.894;5.462;2022-11-14T09:10:09;4.60;1.00
14401;DHT22;7285;50.894;5.462;2022-11-14T09:12:36;4.70;1.00
14401;DHT22;7285;50.894;5.462;2022-11-14T09:15:05;4.90;1.00
14401;DHT22;7285;50.894;5.462;2022-11-14T09:17:32;5.00;1.00
14401;DHT22;7285;50.894;5.462;2022-11-14T09:19:59;5.20;1.00
14401;DHT22;7285;50.894;5.462;2022-11-14T09:22:26;5.50;99.90
14401;DHT22;7285;50.894;5.462;2022-11-14T09:24:53;5.60;99.90
14401;DHT22;7285;50.894;5.462;2022-11-14T09:27:20;5.90;1.00
14401;DHT22;7285;50.894;5.462;2022-11-14T09:29:47;6.10;1.00
14401;DHT22;7285;50.894;5.462;2022-11-14T09:32:15;6.30;99.90
14401;DHT22;7285;50.894;5.462;2022-11-14T09:34:42;6.40;99.90
14401;DHT22;7285;50.894;5.462;2022-11-14T09:37:10;6.60;99.90
14401;DHT22;7285;50.894;5.462;2022-11-14T09:39:37;6.70;1.00
14401;DHT22;7285;50.894;5.462;2022-11-14T09:42:21;6.70;1.00
14401;DHT22;7285;50.894;5.462;2022-11-14T09:44:54;6.80;1.00
14401;DHT22;7285;50.894;5.462;2022-11-14T09:47:27;6.90;1.00
14401;DHT22;7285;50.894;5.462;2022-11-14T09:49:59;7.00;1.00
14401;DHT22;7285;50.894;5.462;2022-11-14T09:52:34;7.00;1.00
14401;DHT22;7285;50.894;5.462;2022-11-14T09:55:09;7.10;1.00
14401;DHT22;7285;50.894;5.462;2022-11-14T09:57:37;7.20;1.00
14401;DHT22;7285;50.894;5.462;2022-11-14T10:00:12;7.20;1.00
14401;DHT22;7285;50.894;5.462;2022-11-14T10:02:58;7.40;1.00
14401;DHT22;7285;50.894;5.462;2022-11-14T10:05:45;7.50;1.00
14401;DHT22;7285;50.894;5.462;2022-11-14T10:08:28;7.60;1.00
14401;DHT22;7285;50.894;5.462;2022-11-14T10:10:59;7.80;99.90
14401;DHT22;7285;50.894;5.462;2022-11-14T10:13:48;7.70;99.90
14401;DHT22;7285;50.894;5.462;2022-11-14T10:16:19;7.80;99.90
14401;DHT22;7285;50.894;5.462;2022-11-14T10:19:01;7.90;99.90
14401;DHT22;7285;50.894;5.462;2022-11-14T10:21:53;8.00;99.90
14401;DHT22;7285;50.894;5.462;2022-11-14T10:24:57;8.00;99.90
14401;DHT22;7285;50.894;5.462;2022-11-14T10:27:30;8.10;99.90
14401;DHT22;7285;50.894;5.462;2022-11-14T10:30:09;8.10;99.90
14401;DHT22;7285;50.894;5.462;2022-11-14T10:32:56;8.20;99.90
14401;DHT22;7285;50.894;5.462;2022-11-14T10:35:32;8.20;99.90
14401;DHT22;7285;50.894;5.462;2022-11-14T10:38:06;8.40;99.90
14401;DHT22;7285;50.894;5.462;2022-11-14T10:40:39;8.50;99.90
14401;DHT22;7285;50.894;5.462;2022-11-14T10:43:15;8.50;99.90
14401;DHT22;7285;50.894;5.462;2022-11-14T10:45:46;8.60;99.90
14401;DHT22;7285;50.894;5.462;2022-11-14T10:48:18;8.60;99.90
14401;DHT22;7285;50.894;5.462;2022-11-14T10:50:56;8.60;99.90
14401;DHT22;7285;50.894;5.462;2022-11-14T10:53:27;8.70;99.90
14401;DHT22;7285;50.894;5.462;2022-11-14T10:55:55;8.60;99.90
14401;DHT22;7285;50.894;5.462;2022-11-14T10:58:23;8.80;99.90
14401;DHT22;7285;50.894;5.462;2022-11-14T11:00:50;9.00;99.90
14401;DHT22;7285;50.894;5.462;2022-11-14T11:03:17;8.90;99.90
14401;DHT22;7285;50.894;5.462;2022-11-14T11:05:47;9.20;91.50
14401;DHT22;7285;50.894;5.462;2022-11-14T11:08:19;9.30;99.90
14401;DHT22;7285;50.894;5.462;2022-11-14T11:11:08;9.50;39.20
14401;DHT22;7285;50.894;5.462;2022-11-14T11:13:55;9.50;20.60
14401;DHT22;7285;50.894;5.462;2022-11-14T11:16:24;9.70;1.00
14401;DHT22;7285;50.894;5.462;2022-11-14T11:18:51;9.90;1.00
14401;DHT22;7285;50.894;5.462;2022-11-14T11:21:21;10.30;1.00
14401;DHT22;7285;50.894;5.462;2022-11-14T11:23:52;10.30;1.00
14401;DHT22;7285;50.894;5.462;2022-11-14T11:26:24;10.30;1.00
14401;DHT22;7285;50.894;5.462;2022-11-14T11:29:02;10.20;1.00
14401;DHT22;7285;50.894;5.462;2022-11-14T11:31:48;10.30;1.00
14401;DHT22;7285;50.894;5.462;2022-11-14T11:34:22;10.10;1.00
14401;DHT22;7285;50.894;5.462;2022-11-14T11:36:53;10.30;1.00
14401;DHT22;7285;50.894;5.462;2022-11-14T11:39:26;10.40;1.00
14401;DHT22;7285;50.894;5.462;2022-11-14T11:41:56;10.60;1.00
14401;DHT22;7285;50.894;5.462;2022-11-14T11:44:32;10.50;1.00
14401;DHT22;7285;50.894;5.462;2022-11-14T11:47:02;10.50;1.00
14401;DHT22;7285;50.894;5.462;2022-11-14T11:49:36;10.50;1.00
14401;DHT22;7285;50.894;5.462;2022-11-14T11:52:12;10.20;1.00
14401;DHT22;7285;50.894;5.462;2022-11-14T11:54:49;9.90;1.00
14401;DHT22;7285;50.894;5.462;2022-11-14T11:57:23;9.70;1.00
14401;DHT22;7285;50.894;5.462;2022-11-14T11:59:58;9.40;1.00
14401;DHT22;7285;50.894;5.462;2022-11-14T12:02:27;9.30;1.00
14401;DHT22;7285;50.894;5.462;2022-11-14T12:04:55;9.10;1.00
14401;DHT22;7285;50.894;5.462;2022-11-14T12:07:30;8.90;1.00
14401;DHT22;7285;50.894;5.462;2022-11-14T12:10:04;8.90;1.00
14401;DHT22;7285;50.894;5.462;2022-11-14T12:15:34;8.70;41.70
14401;DHT22;7285;50.894;5.462;2022-11-14T12:18:25;8.80;85.60
14401;DHT22;7285;50.894;5.462;2022-11-14T12:21:12;8.80;94.10
14401;DHT22;7285;50.894;5.462;2022-11-14T12:24:05;8.80;48.80
14401;DHT22;7285;50.894;5.462;2022-11-14T12:26:54;8.80;90.70
14401;DHT22;7285;50.894;5.462;2022-11-14T12:29:39;8.80;93.30
14401;DHT22;7285;50.894;5.462;2022-11-14T12:32:15;8.90;99.90
14401;DHT22;7285;50.894;5.462;2022-11-14T12:34:45;8.90;79.70
14401;DHT22;7285;50.894;5.462;2022-11-14T12:37:16;9.10;99.90
14401;DHT22;7285;50.894;5.462;2022-11-14T12:39:54;9.00;99.90
14401;DHT22;7285;50.894;5.462;2022-11-14T12:42:23;9.00;99.40
14401;DHT22;7285;50.894;5.462;2022-11-14T12:44:50;9.10;99.90
14401;DHT22;7285;50.894;5.462;2022-11-14T12:47:19;9.20;99.90
14401;DHT22;7285;50.894;5.462;2022-11-14T12:50:04;9.20;93.10
14401;DHT22;7285;50.894;5.462;2022-11-14T12:52:51;9.10;58.30
14401;DHT22;7285;50.894;5.462;2022-11-14T12:55:51;9.20;99.90
14401;DHT22;7285;50.894;5.462;2022-11-14T12:58:27;9.20;99.90
14401;DHT22;7285;50.894;5.462;2022-11-14T13:01:07;9.30;89.20
14401;DHT22;7285;50.894;5.462;2022-11-14T13:03:49;9.40;43.40
14401;DHT22;7285;50.894;5.462;2022-11-14T13:06:23;9.30;42.20
14401;DHT22;7285;50.894;5.462;2022-11-14T13:11:44;9.40;24.50
14401;DHT22;7285;50.894;5.462;2022-11-14T13:14:31;9.40;1.00
14401;DHT22;7285;50.894;5.462;2022-11-14T13:17:31;9.40;1.00
14401;DHT22;7285;50.894;5.462;2022-11-14T13:20:28;9.40;1.00
14401;DHT22;7285;50.894;5.462;2022-11-14T13:23:52;9.40;34.50
14401;DHT22;7285;50.894;5.462;2022-11-14T13:26:41;9.50;63.30
14401;DHT22;7285;50.894;5.462;2022-11-14T13:35:51;9.20;2.20
14401;DHT22;7285;50.894;5.462;2022-11-14T13:42:07;9.40;33.20
14401;DHT22;7285;50.894;5.462;2022-11-14T13:45:00;9.30;8.70
14401;DHT22;7285;50.894;5.462;2022-11-14T13:50:33;9.40;1.00
14401;DHT22;7285;50.894;5.462;2022-11-14T13:53:11;9.40;1.00
14401;DHT22;7285;50.894;5.462;2022-11-14T13:55:50;9.30;1.00
14401;DHT22;7285;50.894;5.462;2022-11-14T13:58:32;9.40;35.60
14401;DHT22;7285;50.894;5.462;2022-11-14T14:01:09;9.50;52.80
14401;DHT22;7285;50.894;5.462;2022-11-14T14:03:50;9.30;10.20
14401;DHT22;7285;50.894;5.462;2022-11-14T14:06:31;9.10;7.70
14401;DHT22;7285;50.894;5.462;2022-11-14T14:09:11;9.00;19.30
14401;DHT22;7285;50.894;5.462;2022-11-14T14:11:49;9.00;85.50
14401;DHT22;7285;50.894;5.462;2022-11-14T14:14:30;9.00;99.90
14401;DHT22;7285;50.894;5.462;2022-11-14T14:17:06;9.00;97.00
14401;DHT22;7285;50.894;5.462;2022-11-14T14:19:46;9.10;99.90
14401;DHT22;7285;50.894;5.462;2022-11-14T14:22:21;9.20;99.90
14401;DHT22;7285;50.894;5.462;2022-11-14T14:24:59;9.20;99.90
14401;DHT22;7285;50.894;5.462;2022-11-14T14:27:35;9.10;99.90
14401;DHT22;7285;50.894;5.462;2022-11-14T14:30:07;9.20;99.90
14401;DHT22;7285;50.894;5.462;2022-11-14T14:32:35;9.10;99.90
14401;DHT22;7285;50.894;5.462;2022-11-14T14:35:20;9.00;99.90
14401;DHT22;7285;50.894;5.462;2022-11-14T14:37:51;9.00;99.90
14401;DHT22;7285;50.894;5.462;2022-11-14T14:40:25;8.90;99.90
14401;DHT22;7285;50.894;5.462;2022-11-14T14:42:53;8.80;99.90
14401;DHT22;7285;50.894;5.462;2022-11-14T14:45:23;8.70;99.90
14401;DHT22;7285;50.894;5.462;2022-11-14T14:47:57;8.70;99.90
14401;DHT22;7285;50.894;5.462;2022-11-14T14:50:27;8.70;99.90
14401;DHT22;7285;50.894;5.462;2022-11-14T14:52:56;8.60;99.90
14401;DHT22;7285;50.894;5.462;2022-11-14T14:55:26;8.60;99.90
14401;DHT22;7285;50.894;5.462;2022-11-14T14:57:53;8.50;99.90
14401;DHT22;7285;50.894;5.462;2022-11-14T15:00:22;8.50;99.90
14401;DHT22;7285;50.894;5.462;2022-11-14T15:02:51;8.40;99.90
14401;DHT22;7285;50.894;5.462;2022-11-14T15:05:23;8.40;99.90
14401;DHT22;7285;50.894;5.462;2022-11-14T15:07:52;8.30;99.90
14401;DHT22;7285;50.894;5.462;2022-11-14T15:10:22;8.20;99.90
14401;DHT22;7285;50.894;5.462;2022-11-14T15:12:52;8.20;99.90
14401;DHT22;7285;50.894;5.462;2022-11-14T15:15:20;8.10;99.90
14401;DHT22;7285;50.894;5.462;2022-11-14T15:17:48;8.10;99.90
14401;DHT22;7285;50.894;5.462;2022-11-14T15:20:23;8.00;99.90
14401;DHT22;7285;50.894;5.462;2022-11-14T15:23:17;7.90;99.90
14401;DHT22;7285;50.894;5.462;2022-11-14T15:25:45;7.80;99.90
14401;DHT22;7285;50.894;5.462;2022-11-14T15:28:15;7.80;1.00
14401;DHT22;7285;50.894;5.462;2022-11-14T15:30:55;7.80;1.00
14401;DHT22;7285;50.894;5.462;2022-11-14T15:33:26;7.70;1.00
14401;DHT22;7285;50.894;5.462;2022-11-14T15:36:05;7.60;1.00
14401;DHT22;7285;50.894;5.462;2022-11-14T15:38:32;7.50;1.00
14401;DHT22;7285;50.894;5.462;2022-11-14T15:41:15;7.50;1.00
14401;DHT22;7285;50.894;5.462;2022-11-14T15:43:49;7.40;1.00
14401;DHT22;7285;50.894;5.462;2022-11-14T15:46:40;7.30;1.00
14401;DHT22;7285;50.894;5.462;2022-11-14T15:49:09;7.30;1.00
14401;DHT22;7285;50.894;5.462;2022-11-14T15:51:45;7.30;1.00
14401;DHT22;7285;50.894;5.462;2022-11-14T15:54:25;7.20;1.00
14401;DHT22;7285;50.894;5.462;2022-11-14T15:56:54;7.20;1.00
14401;DHT22;7285;50.894;5.462;2022-11-14T15:59:22;7.10;1.00
14401;DHT22;7285;50.894;5.462;2022-11-14T16:01:51;7.10;1.00
14401;DHT22;7285;50.894;5.462;2022-11-14T16:04:23;7.00;41.70
14401;DHT22;7285;50.894;5.462;2022-11-14T16:06:51;7.00;99.90
14401;DHT22;7285;50.894;5.462;2022-11-14T16:09:19;7.00;99.90
14401;DHT22;7285;50.894;5.462;2022-11-14T16:11:46;7.00;99.90
14401;DHT22;7285;50.894;5.462;2022-11-14T16:14:13;7.00;99.90
14401;DHT22;7285;50.894;5.462;2022-11-14T16:16:42;6.90;99.90
14401;DHT22;7285;50.894;5.462;2022-11-14T16:19:10;6.80;99.90
14401;DHT22;7285;50.894;5.462;2022-11-14T16:21:38;6.80;99.90
14401;DHT22;7285;50.894;5.462;2022-11-14T16:24:05;6.70;99.90
14401;DHT22;7285;50.894;5.462;2022-11-14T16:26:32;6.70;1.00
14401;DHT22;7285;50.894;5.462;2022-11-14T16:29:00;6.60;1.00
14401;DHT22;7285;50.894;5.462;2022-11-14T16:31:27;6.60;1.00
14401;DHT22;7285;50.894;5.462;2022-11-14T16:33:55;6.40;1.00
14401;DHT22;7285;50.894;5.462;2022-11-14T16:36:22;6.40;1.00
14401;DHT22;7285;50.894;5.462;2022-11-14T16:38:49;6.30;1.00
14401;DHT22;7285;50.894;5.462;2022-11-14T16:41:16;6.30;1.00
14401;DHT22;7285;50.894;5.462;2022-11-14T16:43:43;6.20;1.00
14401;DHT22;7285;50.894;5.462;2022-11-14T16:46:10;6.20;1.00